Time;durP1;ratioP1;P1;durP2;ratioP2;P2;SDS_P1;SDS_P2;PMS_P1;PMS_P2;Temp;Humidity;BMP_temperature;BMP_pressure;BME280_temperature;BME280_humidity;BME280_pressure;Samples;Min_cycle;Max_cycle;Signal;HPM_P1;HPM_P2
2022/12/22 03:27:14;;;;;;;34.37;19.50;;;;;;;-1.10;87.06;97212.53;5080257;28;20199;-75
2022/12/22 03:29:41;;;;;;;37.63;20.67;;;;;;;-1.08;86.25;97200.66;5089067;28;20203;-77
2022/12/22 03:32:07;;;;;;;38.00;20.37;;;;;;;-0.96;86.28;97215.94;5090383;28;20196;-76
2022/12/22 03:34:34;;;;;;;31.27;19.43;;;;;;;-0.94;86.48;97219.31;5089529;28;20193;-76
2022/12/22 03:37:01;;;;;;;30.97;18.40;;;;;;;-0.96;85.83;97223.56;5089661;28;20614;-75
2022/12/22 03:39:28;;;;;;;33.23;18.93;;;;;;;-0.91;85.32;97221.88;5089614;28;20196;-76
2022/12/22 03:47:26;;;;;;;31.43;18.13;;;;;;;-0.74;83.45;97210.03;5089066;28;20220;-78
2022/12/22 03:49:52;;;;;;;28.10;17.33;;;;;;;-0.61;82.33;97224.44;5089598;28;20188;-79
2022/12/22 03:52:19;;;;;;;31.10;16.73;;;;;;;-0.69;83.03;97213.44;5089368;28;20676;-75
2022/12/22 03:54:46;;;;;;;31.67;17.87;;;;;;;-0.71;81.56;97220.22;5089132;28;20197;-77
2022/12/22 03:57:13;;;;;;;28.80;16.73;;;;;;;-0.73;81.53;97221.91;5091106;28;20203;-76
2022/12/22 04:00:20;;;;;;;26.83;17.13;;;;;;;-0.71;81.42;97215.13;5090206;28;20697;-78
2022/12/22 04:03:40;;;;;;;29.30;17.37;;;;;;;-0.81;80.65;97215.97;5088487;28;20279;-84
2022/12/22 04:06:21;;;;;;;26.33;14.83;;;;;;;-0.87;81.36;97208.34;5088620;28;20214;-79
2022/12/22 04:08:48;;;;;;;31.53;17.33;;;;;;;-1.03;82.36;97209.16;5088731;28;20192;-80
2022/12/22 04:14:02;;;;;;;25.73;14.80;;;;;;;-1.10;83.70;97215.06;5090744;28;20283;-79
2022/12/22 04:16:29;;;;;;;31.70;15.70;;;;;;;-1.01;83.28;97210.00;5088141;28;20206;-80
2022/12/22 04:18:57;;;;;;;22.60;13.97;;;;;;;-1.07;83.51;97204.91;5089319;28;20188;-80
2022/12/22 04:21:24;;;;;;;24.80;15.50;;;;;;;-1.01;83.72;97208.28;5088226;28;20222;-83
2022/12/22 04:23:51;;;;;;;25.83;15.80;;;;;;;-0.88;82.53;97209.16;5089364;28;20716;-77
2022/12/22 04:26:19;;;;;;;25.80;15.87;;;;;;;-0.99;83.11;97196.44;5088210;28;20284;-82
2022/12/22 04:28:46;;;;;;;24.83;14.73;;;;;;;-1.18;83.51;97201.50;5088821;28;20205;-79
2022/12/22 04:31:13;;;;;;;25.27;14.90;;;;;;;-1.16;83.45;97195.59;5088959;28;20643;-79
2022/12/22 04:33:40;;;;;;;29.23;17.47;;;;;;;-1.14;83.12;97219.28;5070603;28;20222;-76
2022/12/22 04:36:08;;;;;;;26.87;16.20;;;;;;;-1.17;83.32;97214.19;5088978;28;20614;-78
2022/12/22 04:38:35;;;;;;;25.50;14.17;;;;;;;-1.28;83.40;97215.03;5087616;28;20220;-80
2022/12/22 04:41:03;;;;;;;22.47;13.90;;;;;;;-1.23;83.87;97208.25;5088684;28;20718;-78
2022/12/22 04:43:30;;;;;;;22.07;13.23;;;;;;;-1.09;82.94;97215.06;5087037;28;20206;-76
2022/12/22 04:45:57;;;;;;;25.70;14.93;;;;;;;-1.06;83.08;97206.59;5088184;28;20231;-78
2022/12/22 04:48:25;;;;;;;32.00;16.67;;;;;;;-1.28;82.80;97174.38;5087842;28;20204;-81
2022/12/22 04:50:54;;;;;;;24.03;15.13;;;;;;;-1.13;83.52;97215.03;5088139;28;20234;-78
2022/12/22 04:53:22;;;;;;;25.60;15.37;;;;;;;-1.18;83.65;97207.44;5088785;28;20277;-78
2022/12/22 04:55:53;;;;;;;25.40;15.87;;;;;;;-1.23;83.58;97200.63;5087733;28;20294;-76
2022/12/22 04:58:20;;;;;;;28.00;15.83;;;;;;;-1.01;83.43;97212.56;5088582;28;20227;-76
2022/12/22 05:00:47;;;;;;;22.97;14.63;;;;;;;-1.16;83.88;97212.50;5087928;28;20191;-81
2022/12/22 05:03:14;;;;;;;26.30;15.17;;;;;;;-0.95;83.62;97215.94;5088338;28;20679;-80
2022/12/22 05:05:41;;;;;;;28.67;15.80;;;;;;;-1.01;83.63;97215.91;5087920;28;20232;-75
2022/12/22 05:08:08;;;;;;;27.70;15.67;;;;;;;-1.00;83.96;97204.06;5087994;28;20279;-78
2022/12/22 05:10:35;;;;;;;25.97;14.67;;;;;;;-0.90;82.59;97215.94;5089187;28;20191;-83
2022/12/22 05:13:02;;;;;;;35.53;18.37;;;;;;;-0.95;83.01;97187.97;5087451;28;20203;-77
2022/12/22 05:15:32;;;;;;;38.17;20.43;;;;;;;-0.81;82.44;97213.41;5087869;28;20326;-76
2022/12/22 05:18:00;;;;;;;41.10;22.60;;;;;;;-0.91;82.63;97211.72;5087873;28;20279;-84
2022/12/22 05:20:27;;;;;;;36.93;22.80;;;;;;;-0.91;83.31;97204.09;5089054;28;20204;-77
2022/12/22 05:22:55;;;;;;;38.27;19.73;;;;;;;-0.95;83.17;97197.31;5088621;28;20225;-83
2022/12/22 05:25:22;;;;;;;41.13;23.20;;;;;;;-0.88;83.22;97204.09;5088635;28;20228;-81
2022/12/22 05:27:50;;;;;;;41.77;24.73;;;;;;;-0.89;82.50;97210.03;5087289;28;20180;-82
2022/12/22 05:30:18;;;;;;;49.40;24.77;;;;;;;-0.87;83.41;97208.34;5084306;28;20256;-80
2022/12/22 05:32:46;;;;;;;36.07;21.53;;;;;;;-0.80;83.00;97207.47;5087788;28;20188;-81
2022/12/22 05:35:12;;;;;;;44.83;25.43;;;;;;;-0.68;82.27;97204.13;5086642;28;20206;-79
2022/12/22 05:37:40;;;;;;;37.17;21.90;;;;;;;-0.83;81.77;97204.94;5069618;28;20220;-81
2022/12/22 05:40:08;;;;;;;34.27;19.93;;;;;;;-1.02;82.30;97209.16;5086677;28;20683;-82
2022/12/22 05:42:35;;;;;;;36.30;20.37;;;;;;;-1.15;82.59;97211.66;5087236;28;20195;-78
2022/12/22 05:45:14;;;;;;;43.00;22.90;;;;;;;-1.27;83.11;97193.84;5087250;28;20223;-81
2022/12/22 05:47:42;;;;;;;34.97;18.77;;;;;;;-1.65;83.18;97151.41;5087183;28;20250;-82
2022/12/22 05:50:11;;;;;;;25.50;16.87;;;;;;;-1.39;83.95;97206.50;5087685;28;20252;-82
2022/12/22 05:52:38;;;;;;;24.17;14.67;;;;;;;-1.63;85.26;97192.06;5086693;28;20214;-80
2022/12/22 05:55:06;;;;;;;29.07;15.10;;;;;;;-1.51;85.82;97202.25;5070892;28;20666;-81
2022/12/22 05:57:34;;;;;;;24.13;13.47;;;;;;;-1.67;85.47;97180.19;5087254;28;20935;-83
2022/12/22 06:00:01;;;;;;;20.57;12.90;;;;;;;-1.53;85.68;97206.47;5087225;28;20815;-82
2022/12/22 06:02:42;;;;;;;21.63;13.80;;;;;;;-1.60;85.66;97196.28;5086886;28;20224;-81
2022/12/22 06:05:12;;;;;;;22.77;13.77;;;;;;;-1.48;86.00;97196.34;5087323;28;20288;-74
2022/12/22 06:07:39;;;;;;;31.97;16.23;;;;;;;-1.42;85.29;97201.44;5052581;28;20292;-81
2022/12/22 06:10:08;;;;;;;38.80;20.53;;;;;;;-1.30;85.43;97209.09;5067768;28;20257;-79
2022/12/22 06:12:42;;;;;;;36.53;21.83;;;;;;;-1.25;84.43;97204.84;5087033;28;20302;-79
2022/12/22 06:15:12;;;;;;;39.60;21.67;;;;;;;-1.24;83.43;97182.03;5086319;28;20194;-80
2022/12/22 06:17:39;;;;;;;29.00;16.73;;;;;;;-0.99;82.95;97214.22;5086597;28;20220;-82
2022/12/22 06:20:12;;;;;;;30.03;17.83;;;;;;;-1.07;82.67;97215.09;5086973;28;20246;-80
2022/12/22 06:22:39;;;;;;;32.83;19.00;;;;;;;-0.97;82.83;97219.34;5086014;28;20195;-81
2022/12/22 06:25:06;;;;;;;36.10;20.30;;;;;;;-0.93;81.82;97223.56;5087846;28;20739;-81
2022/12/22 06:27:39;;;;;;;42.43;23.47;;;;;;;-0.62;81.82;97227.84;5085953;28;20208;-80
2022/12/22 06:30:06;;;;;;;45.43;26.47;;;;;;;-0.64;80.53;97237.19;5087033;28;20184;-82
2022/12/22 06:32:38;;;;;;;42.23;27.33;;;;;;;-0.40;80.95;97233.78;5085942;28;20287;-80
2022/12/22 06:35:06;;;;;;;52.10;28.87;;;;;;;-0.25;80.63;97234.59;5086887;28;20192;-79
2022/12/22 06:37:33;;;;;;;45.77;25.63;;;;;;;-0.38;78.92;97243.09;5086535;28;20192;-82
2022/12/22 06:40:00;;;;;;;51.60;27.10;;;;;;;-0.65;79.56;97235.47;5087078;28;20650;-80
2022/12/22 06:45:14;;;;;;;39.87;23.10;;;;;;;-0.62;80.94;97240.56;5089759;28;20235;-79
2022/12/22 06:47:41;;;;;;;35.60;22.03;;;;;;;-0.41;79.83;97253.28;5090776;28;20944;-81
2022/12/22 06:50:12;;;;;;;27.00;15.53;;;;;;;-0.62;79.87;97229.53;5090030;28;20275;-81
2022/12/22 06:52:45;;;;;;;23.20;14.87;;;;;;;-0.44;79.47;97249.88;5072915;28;20673;-82
2022/12/22 06:55:12;;;;;;;24.67;16.53;;;;;;;-0.47;80.76;97244.78;5090473;28;20195;-82
2022/12/22 06:57:39;;;;;;;28.73;16.53;;;;;;;-0.39;80.25;97231.22;5071442;28;20184;-81
2022/12/22 07:00:06;;;;;;;23.30;15.57;;;;;;;-0.10;80.75;97246.47;5090306;28;20342;-80
2022/12/22 07:02:33;;;;;;;21.63;14.13;;;;;;;-0.14;79.49;97244.78;5090180;28;20201;-80
2022/12/22 07:05:01;;;;;;;19.60;13.57;;;;;;;0.06;79.85;97242.22;5090443;28;20227;-77
2022/12/22 07:07:29;;;;;;;25.37;14.10;;;;;;;0.26;78.87;97243.03;5089772;28;20195;-78
2022/12/22 07:09:56;;;;;;;18.93;12.40;;;;;;;0.26;79.52;97243.03;5071664;28;20219;-80
2022/12/22 07:12:23;;;;;;;19.77;12.63;;;;;;;0.38;79.15;97243.84;5089971;28;20196;-80
2022/12/22 07:14:50;;;;;;;23.10;14.87;;;;;;;0.52;77.89;97238.69;5089506;28;20215;-79
2022/12/22 07:17:17;;;;;;;28.80;16.43;;;;;;;0.86;77.42;97244.50;5090109;28;20630;-78
2022/12/22 07:19:44;;;;;;;29.53;20.27;;;;;;;0.88;77.34;97242.78;5088893;28;20241;-80
2022/12/22 07:22:11;;;;;;;35.27;21.63;;;;;;;0.88;77.17;97237.69;5090506;28;20196;-78
2022/12/22 07:24:37;;;;;;;39.57;21.13;;;;;;;1.00;77.04;97233.38;5089081;28;20629;-79
2022/12/22 07:27:04;;;;;;;37.03;22.07;;;;;;;0.94;77.75;97227.47;5089643;28;20711;-81
2022/12/22 07:29:31;;;;;;;34.80;20.73;;;;;;;1.20;77.33;97249.41;5089479;28;20192;-79
2022/12/22 07:31:58;;;;;;;37.97;22.47;;;;;;;1.23;76.73;97254.50;5071034;28;20188;-80
2022/12/22 07:34:25;;;;;;;38.17;23.00;;;;;;;1.19;75.44;97239.22;5089767;28;20222;-79
2022/12/22 07:36:52;;;;;;;41.50;24.80;;;;;;;1.43;77.50;97239.91;5088612;28;20763;-78
2022/12/22 07:39:19;;;;;;;42.10;24.43;;;;;;;1.49;76.88;97244.97;5089398;28;20204;-77
2022/12/22 07:44:31;;;;;;;50.40;29.97;;;;;;;1.79;77.30;97249.00;5089532;28;20190;-83
2022/12/22 07:46:58;;;;;;;45.20;26.67;;;;;;;1.81;75.71;97241.31;5089661;28;20230;-79
2022/12/22 07:52:10;;;;;;;36.10;23.60;;;;;;;1.85;75.46;97248.09;5090143;28;20355;-79
2022/12/22 07:54:37;;;;;;;40.93;23.30;;;;;;;2.03;75.73;97240.25;5088568;28;20635;-77
2022/12/22 07:57:08;;;;;;;35.67;22.53;;;;;;;2.07;74.31;97239.38;5089708;28;20599;-82
2022/12/22 07:59:35;;;;;;;40.70;24.07;;;;;;;2.20;74.55;97235.84;5090181;28;20272;-80
2022/12/22 08:02:02;;;;;;;42.93;24.90;;;;;;;2.25;75.02;97234.06;5089061;28;20187;-79
2022/12/22 08:04:29;;;;;;;36.47;23.83;;;;;;;2.42;73.94;97252.63;5089408;28;20284;-81
2022/12/22 08:06:57;;;;;;;40.30;25.40;;;;;;;2.39;73.75;97238.19;5088811;28;20224;-78
2022/12/22 08:09:24;;;;;;;37.37;25.63;;;;;;;2.44;73.87;97244.09;5089021;28;20686;-78
2022/12/22 08:11:51;;;;;;;48.67;26.90;;;;;;;2.51;74.38;97242.31;5087942;28;20271;-80
2022/12/22 08:14:18;;;;;;;48.93;27.07;;;;;;;2.51;73.19;97241.47;5071176;28;20220;-81
2022/12/22 08:16:44;;;;;;;38.37;24.77;;;;;;;2.55;73.68;97238.03;5088307;28;20211;-80
2022/12/22 08:19:12;;;;;;;44.40;24.87;;;;;;;2.69;73.82;97244.66;5070379;28;20188;-80
2022/12/22 08:21:39;;;;;;;32.53;22.83;;;;;;;2.75;73.36;97236.91;5087925;28;20197;-79
2022/12/22 08:24:06;;;;;;;40.10;24.07;;;;;;;2.82;72.81;97245.38;5069560;28;20284;-81
2022/12/22 08:26:41;;;;;;;37.97;21.70;;;;;;;2.92;73.07;97245.25;5088044;28;20676;-80
2022/12/22 08:29:18;;;;;;;36.07;22.63;;;;;;;2.99;72.47;97236.59;5087246;28;20272;-81
2022/12/22 08:31:46;;;;;;;36.37;22.53;;;;;;;3.09;73.26;97240.72;5087966;28;20199;-80
2022/12/22 08:34:14;;;;;;;37.90;21.97;;;;;;;3.08;74.20;97225.41;5087227;28;20208;-80
2022/12/22 08:36:46;;;;;;;32.30;21.10;;;;;;;3.29;74.39;97231.09;5087526;28;20261;-80
2022/12/22 08:39:15;;;;;;;34.30;21.67;;;;;;;3.19;73.34;97218.44;5087550;28;20204;-82
2022/12/22 08:41:50;;;;;;;29.60;19.30;;;;;;;3.33;73.85;97225.91;5065334;28;20233;-80
2022/12/22 08:44:23;;;;;;;40.87;19.53;;;;;;;3.04;73.48;97199.03;5067970;28;20510;-78
2022/12/22 08:46:52;;;;;;;34.57;19.50;;;;;;;3.28;74.18;97231.09;5066309;28;20738;-76
2022/12/22 08:49:19;;;;;;;37.17;21.73;;;;;;;3.43;73.31;97225.75;5067242;28;20710;-75
2022/12/22 08:51:47;;;;;;;42.17;22.20;;;;;;;3.58;73.67;97229.81;5067038;28;20210;-77
2022/12/22 08:54:14;;;;;;;38.07;22.03;;;;;;;3.62;73.72;97216.09;5065760;28;20695;-79
2022/12/22 08:56:45;;;;;;;36.93;21.67;;;;;;;3.61;73.88;97217.78;5065826;28;20633;-77
2022/12/22 08:59:14;;;;;;;38.83;21.30;;;;;;;3.54;73.47;97216.22;5067535;28;20288;-80
2022/12/22 09:01:49;;;;;;;31.93;20.17;;;;;;;3.38;73.05;97194.25;5067494;28;20706;-76
2022/12/22 09:04:19;;;;;;;32.33;20.43;;;;;;;3.71;73.12;97208.25;5065765;28;20208;-81
2022/12/22 09:06:46;;;;;;;28.03;18.83;;;;;;;3.83;73.02;97197.81;5067712;28;20264;-78
2022/12/22 09:09:15;;;;;;;31.67;20.43;;;;;;;3.69;72.03;97179.28;5066530;28;20213;-76
2022/12/22 09:11:42;;;;;;;32.57;19.10;;;;;;;3.86;71.44;97183.22;5066379;28;20201;-77
2022/12/22 09:14:10;;;;;;;27.47;17.03;;;;;;;3.81;70.32;97184.19;5064961;28;20187;-76
2022/12/22 09:16:37;;;;;;;30.13;19.30;;;;;;;3.95;70.22;97193.31;5066507;28;20740;-76
2022/12/22 09:19:05;;;;;;;34.70;19.77;;;;;;;3.62;71.46;97142.69;5065332;28;20197;-77
2022/12/22 09:21:33;;;;;;;30.53;21.03;;;;;;;4.08;71.01;97191.41;5065932;28;20249;-79
2022/12/22 09:24:00;;;;;;;37.37;22.40;;;;;;;4.19;70.42;97175.78;5066815;28;20213;-81
2022/12/22 09:26:28;;;;;;;30.80;18.30;;;;;;;4.19;68.67;97181.78;5065789;28;20215;-80
2022/12/22 09:28:55;;;;;;;27.37;17.63;;;;;;;4.40;67.89;97176.25;5066485;28;20263;-77
2022/12/22 09:31:24;;;;;;;25.17;18.90;;;;;;;4.45;68.49;97169.28;5065976;28;20204;-76
2022/12/22 09:33:51;;;;;;;33.50;19.37;;;;;;;4.22;68.38;97163.78;5064661;28;20202;-78
2022/12/22 09:36:24;;;;;;;27.43;17.37;;;;;;;4.33;67.78;97143.09;5066430;28;20281;-77
2022/12/22 09:38:52;;;;;;;29.10;18.83;;;;;;;4.54;67.91;97160.56;5065753;28;20749;-74
2022/12/22 09:41:27;;;;;;;28.63;15.13;;;;;;;4.58;67.32;97164.75;5078870;28;20240;-76
2022/12/22 09:43:55;;;;;;;26.53;14.13;;;;;;;4.71;67.46;97161.09;5085602;28;20208;-81
2022/12/22 09:46:34;;;;;;;24.43;15.17;;;;;;;4.79;66.28;97154.06;5086399;28;20221;-78
2022/12/22 09:49:03;;;;;;;23.20;15.27;;;;;;;4.94;65.41;97149.47;5086056;28;20289;-78
2022/12/22 09:51:33;;;;;;;27.93;15.20;;;;;;;5.13;64.61;97149.06;5085921;28;20662;-78
2022/12/22 09:54:01;;;;;;;30.77;16.20;;;;;;;5.08;65.23;97150.88;5086666;28;20199;-78
2022/12/22 09:56:29;;;;;;;33.23;17.07;;;;;;;4.84;66.70;97108.66;5086263;28;20279;-77
2022/12/22 09:58:57;;;;;;;29.47;18.37;;;;;;;5.24;66.54;97142.78;5087163;28;20683;-78
2022/12/22 10:01:31;;;;;;;33.53;18.80;;;;;;;5.38;64.81;97129.63;5085456;28;20222;-83
2022/12/22 10:04:04;;;;;;;28.10;17.57;;;;;;;5.53;65.76;97135.22;5086360;28;20289;-78
2022/12/22 10:06:47;;;;;;;22.10;14.77;;;;;;;5.50;65.43;97140.44;5086138;28;20328;-78
2022/12/22 10:09:20;;;;;;;29.70;15.97;;;;;;;5.56;64.63;97129.19;5085483;28;20293;-78
2022/12/22 10:12:14;;;;;;;28.87;15.17;;;;;;;5.48;64.35;97087.44;5068345;28;20182;-76
2022/12/22 10:14:45;;;;;;;24.10;12.43;;;;;;;5.76;64.02;97126.94;5066638;28;20206;-79
2022/12/22 10:17:33;;;;;;;20.70;13.13;;;;;;;5.83;63.36;97123.34;5085933;28;20196;-78
2022/12/22 10:20:20;;;;;;;23.57;13.83;;;;;;;5.89;62.34;97120.66;5086222;28;20597;-78
2022/12/22 10:22:50;;;;;;;35.63;12.77;;;;;;;5.91;61.90;97116.31;5086090;28;20196;-76
2022/12/22 10:25:29;;;;;;;21.70;12.13;;;;;;;5.98;62.62;97102.41;5086146;28;20211;-78
2022/12/22 10:28:21;;;;;;;19.43;11.40;;;;;;;5.90;61.02;97101.75;5085742;28;20198;-76
2022/12/22 10:30:48;;;;;;;19.37;12.73;;;;;;;5.95;61.41;97092.22;5085535;28;20189;-76
2022/12/22 10:33:17;;;;;;;28.13;15.27;;;;;;;6.13;59.89;97089.16;5085677;28;20195;-80
2022/12/22 10:35:50;;;;;;;20.67;10.53;;;;;;;6.27;60.62;97088.75;5085413;28;20278;-79
2022/12/22 10:38:23;;;;;;;17.57;11.23;;;;;;;6.31;60.24;97091.19;5086265;28;20382;-78
2022/12/22 10:40:54;;;;;;;16.70;8.33;;;;;;;6.20;59.46;97088.06;5085184;28;20245;-76
2022/12/22 10:43:36;;;;;;;19.50;8.97;;;;;;;6.31;59.67;97091.19;5085463;28;20743;-78
2022/12/22 10:46:03;;;;;;;13.20;8.20;;;;;;;6.26;59.37;97085.34;5085497;28;20214;-77
2022/12/22 10:48:37;;;;;;;11.97;8.07;;;;;;;6.34;59.59;97075.69;5084931;28;20636;-76
2022/12/22 10:51:09;;;;;;;11.23;7.00;;;;;;;6.40;58.82;97070.38;5085947;28;20195;-80
2022/12/22 10:53:50;;;;;;;11.23;6.53;;;;;;;6.31;58.62;97070.63;5085421;28;20212;-80
2022/12/22 10:56:28;;;;;;;9.50;5.73;;;;;;;6.35;57.11;97064.50;5085717;28;20276;-77
2022/12/22 10:59:12;;;;;;;10.07;6.13;;;;;;;6.28;58.65;97028.75;5085903;28;20267;-80
2022/12/22 11:01:39;;;;;;;12.93;6.37;;;;;;;6.09;58.87;97048.97;5085204;28;20203;-79
2022/12/22 11:04:21;;;;;;;11.43;7.83;;;;;;;6.56;59.10;97055.31;5067799;28;20192;-77
2022/12/22 11:06:49;;;;;;;14.50;7.67;;;;;;;6.61;58.79;97055.19;5085705;28;20237;-77
2022/12/22 11:09:17;;;;;;;15.03;7.77;;;;;;;6.66;58.08;97050.75;5085473;28;20203;-77
2022/12/22 11:12:06;;;;;;;13.53;8.63;;;;;;;6.64;58.00;97048.22;5085722;28;20325;-77
2022/12/22 11:14:57;;;;;;;15.13;9.30;;;;;;;6.71;59.39;97038.56;5085320;28;20246;-76
2022/12/22 11:17:45;;;;;;;13.60;7.63;;;;;;;6.70;58.17;97034.34;5085644;28;20195;-77
2022/12/22 11:20:33;;;;;;;15.10;9.97;;;;;;;6.83;58.95;97030.47;5085931;28;20273;-79
2022/12/22 11:23:09;;;;;;;14.23;9.60;;;;;;;6.90;59.02;97030.25;5088509;28;20215;-77
2022/12/22 11:25:44;;;;;;;16.03;8.87;;;;;;;6.96;59.25;97024.06;5092000;28;20280;-81
2022/12/22 11:28:35;;;;;;;18.17;9.97;;;;;;;7.02;60.79;97023.88;5088688;28;20206;-81
2022/12/22 11:31:55;;;;;;;19.07;11.33;;;;;;;6.78;60.11;97022.06;5089136;28;20207;-81
2022/12/22 11:34:36;;;;;;;18.67;10.30;;;;;;;6.90;60.45;97019.09;5090003;28;20245;-80
2022/12/22 11:37:29;;;;;;;13.90;9.20;;;;;;;7.02;61.17;97018.72;5088296;28;20582;-80
2022/12/22 11:40:02;;;;;;;11.63;8.03;;;;;;;7.15;60.92;97020.84;5088841;28;20189;-80
2022/12/22 11:43:02;;;;;;;16.43;9.10;;;;;;;6.91;60.36;97019.06;5088730;28;20199;-79
2022/12/22 11:45:51;;;;;;;13.17;7.43;;;;;;;6.57;61.53;97024.38;5088259;28;20762;-80
2022/12/22 11:49:02;;;;;;;17.63;9.73;;;;;;;6.78;60.63;97015.16;5089635;28;20299;-79
2022/12/22 11:52:17;;;;;;;14.30;8.00;;;;;;;6.98;60.55;97011.97;4987801;28;20222;-80
2022/12/22 11:55:21;;;;;;;14.47;8.83;;;;;;;7.08;61.17;97015.94;4965593;28;20680;-80
2022/12/22 11:58:03;;;;;;;12.80;8.20;;;;;;;7.02;60.81;97013.56;5088178;28;20189;-80
2022/12/22 12:00:39;;;;;;;12.43;7.80;;;;;;;7.13;60.73;97012.31;5088934;28;20199;-80
2022/12/22 12:03:31;;;;;;;11.00;6.50;;;;;;;7.00;60.14;97010.19;5088346;28;20189;-81
2022/12/22 12:06:23;;;;;;;11.80;7.20;;;;;;;7.04;60.31;97006.63;5088575;28;20201;-80
2022/12/22 12:09:22;;;;;;;9.23;6.10;;;;;;;6.99;60.21;97008.50;5088690;28;20286;-80
2022/12/22 12:12:25;;;;;;;10.90;6.30;;;;;;;7.07;60.53;96997.06;5087406;28;20290;-80
2022/12/22 12:15:14;;;;;;;10.70;5.87;;;;;;;7.05;60.70;96992.84;5003895;28;20526;-80
2022/12/22 12:18:00;;;;;;;11.60;7.27;;;;;;;7.09;60.58;96994.47;5088849;28;20277;-77
2022/12/22 12:20:52;;;;;;;18.67;8.97;;;;;;;7.18;60.54;96987.28;5087484;28;20267;-79
2022/12/22 12:23:30;;;;;;;12.80;8.40;;;;;;;7.25;60.77;96986.16;5088656;28;20210;-76
2022/12/22 12:26:14;;;;;;;11.73;7.27;;;;;;;7.12;60.38;96976.31;5088235;28;20684;-81
2022/12/22 12:28:50;;;;;;;10.10;7.07;;;;;;;7.16;60.56;96988.22;5087622;28;21334;-79
2022/12/22 12:31:20;;;;;;;13.93;9.33;;;;;;;7.12;60.39;96966.03;5088604;28;20211;-77
2022/12/22 12:34:00;;;;;;;13.33;8.53;;;;;;;7.32;61.09;96987.66;5087665;28;20315;-80
2022/12/22 12:36:49;;;;;;;12.23;8.13;;;;;;;7.32;61.34;96994.53;5088163;28;20202;-78
2022/12/22 12:39:37;;;;;;;13.97;7.90;;;;;;;7.37;61.96;96988.34;5069561;28;20202;-81
2022/12/22 12:42:37;;;;;;;12.40;8.37;;;;;;;7.50;61.05;96990.50;5086847;28;20221;-82
2022/12/22 12:45:40;;;;;;;11.37;8.40;;;;;;;7.40;62.09;97001.09;5032261;28;20278;-76
2022/12/22 12:48:19;;;;;;;13.10;8.77;;;;;;;7.40;62.49;96998.53;5088020;28;20246;-79
2022/12/22 12:50:55;;;;;;;11.83;8.67;;;;;;;7.49;61.78;97005.09;5087089;28;20196;-76
2022/12/22 12:53:23;;;;;;;16.73;9.70;;;;;;;7.47;62.37;97006.91;5087840;28;20627;-80
2022/12/22 12:55:53;;;;;;;17.20;9.90;;;;;;;7.49;62.11;97009.41;5087357;28;20691;-79
2022/12/22 12:58:36;;;;;;;15.10;9.23;;;;;;;7.51;62.06;97005.03;5087968;28;20301;-80
2022/12/22 13:01:03;;;;;;;13.70;8.67;;;;;;;7.56;60.91;96996.28;5071665;28;20199;-80
2022/12/22 13:03:30;;;;;;;13.83;9.93;;;;;;;7.56;60.90;97000.59;5087193;28;20187;-81
2022/12/22 13:06:45;;;;;;;19.67;8.73;;;;;;;7.60;59.93;97008.16;5069454;28;20200;-79
2022/12/22 13:09:24;;;;;;;12.83;7.80;;;;;;;7.25;59.02;96949.28;5069368;28;20196;-80
2022/12/22 13:12:38;;;;;;;11.67;7.07;;;;;;;7.53;58.71;97004.09;5072222;28;20188;-81
2022/12/22 13:15:35;;;;;;;12.40;7.53;;;;;;;7.38;58.61;97000.31;5087491;28;20200;-78
2022/12/22 13:18:23;;;;;;;15.17;8.40;;;;;;;7.32;58.66;96981.66;5087157;28;20190;-79
2022/12/22 13:21:04;;;;;;;11.37;6.57;;;;;;;7.43;58.80;96997.59;5086585;28;20641;-78
2022/12/22 13:23:54;;;;;;;11.70;7.73;;;;;;;7.31;60.10;97000.59;5087899;28;20198;-79
2022/12/22 13:26:43;;;;;;;9.40;6.47;;;;;;;6.99;60.59;96954.44;5086772;28;20227;-81
2022/12/22 13:29:25;;;;;;;10.07;7.00;;;;;;;7.29;60.23;96992.88;5086478;28;20206;-77
2022/12/22 13:32:13;;;;;;;12.33;8.33;;;;;;;7.26;59.74;96972.41;5088007;28;20759;-82
2022/12/22 13:34:45;;;;;;;23.00;8.60;;;;;;;7.25;60.41;96957.00;5086658;28;20224;-80
2022/12/22 13:37:40;;;;;;;11.93;7.27;;;;;;;7.40;61.16;96989.94;5068448;28;20615;-81
2022/12/22 13:40:20;;;;;;;9.20;6.77;;;;;;;7.37;60.17;96983.19;5086855;28;20287;-79
2022/12/22 13:42:50;;;;;;;12.20;7.77;;;;;;;7.34;61.13;96972.97;5086436;28;20281;-80
2022/12/22 13:45:31;;;;;;;14.70;8.57;;;;;;;7.49;61.90;96981.91;5087059;28;20205;-81
2022/12/22 13:48:01;;;;;;;15.23;9.33;;;;;;;7.42;62.36;96983.00;5086461;28;20733;-78
2022/12/22 13:50:36;;;;;;;15.23;9.23;;;;;;;7.23;62.31;96951.06;5086507;28;20187;-78
2022/12/22 13:53:07;;;;;;;20.23;10.93;;;;;;;7.07;62.71;96940.44;5086722;28;20622;-78
2022/12/22 13:55:35;;;;;;;14.03;8.37;;;;;;;7.01;63.02;96940.63;5086008;28;20210;-80
2022/12/22 13:58:21;;;;;;;15.57;10.70;;;;;;;7.14;62.56;96961.66;5086914;28;20663;-78
2022/12/22 14:01:12;;;;;;;19.03;11.03;;;;;;;7.25;62.85;96975.03;5070384;28;20184;-80
2022/12/22 14:04:02;;;;;;;;;;;;;;;;;;;;;
2022/12/22 14:06:39;;;;;;;14.30;9.30;;;;;;;7.05;62.75;96975.69;5078261;28;20204;-79
2022/12/22 14:09:18;;;;;;;21.40;11.37;;;;;;;7.00;62.70;96964.72;5085932;28;20576;-81
2022/12/22 14:11:50;;;;;;;22.93;14.23;;;;;;;7.07;62.91;96971.31;5087079;28;20217;-77
2022/12/22 14:14:33;;;;;;;17.70;12.07;;;;;;;7.03;61.97;96968.88;5086395;28;20199;-80
2022/12/22 14:17:01;;;;;;;16.53;11.13;;;;;;;7.03;63.38;96976.63;5086004;28;20729;-75
2022/12/22 14:19:36;;;;;;;17.80;10.87;;;;;;;6.84;63.68;96965.25;5086757;28;20216;-75
2022/12/22 14:22:08;;;;;;;15.07;9.20;;;;;;;6.82;64.66;96965.28;5085735;28;20204;-79
2022/12/22 14:24:53;;;;;;;18.77;10.37;;;;;;;6.80;64.81;96967.06;5086141;28;20187;-77
2022/12/22 14:27:42;;;;;;;16.70;10.03;;;;;;;6.58;64.63;96948.91;5086137;28;20310;-78
2022/12/22 14:30:29;;;;;;;13.77;9.93;;;;;;;6.70;66.28;96970.00;5085618;28;20243;-77
2022/12/22 14:33:22;;;;;;;20.30;10.67;;;;;;;6.61;66.40;96970.28;5086776;28;20687;-77
2022/12/22 14:35:49;;;;;;;13.23;8.90;;;;;;;6.62;66.24;96971.94;5085589;28;20201;-80
2022/12/22 14:38:23;;;;;;;22.50;11.03;;;;;;;6.63;66.38;96978.78;5067749;28;20196;-77
2022/12/22 14:40:53;;;;;;;17.57;8.60;;;;;;;6.52;66.86;96976.56;5091026;28;20228;-77
2022/12/22 14:43:30;;;;;;;15.17;9.47;;;;;;;6.24;66.60;96943.13;5072490;28;20298;-76
2022/12/22 14:46:40;;;;;;;16.50;9.53;;;;;;;6.31;67.48;96978.06;5067119;28;20192;-76
2022/12/22 14:50:12;;;;;;;14.80;10.00;;;;;;;6.15;67.98;96969.13;5072890;28;20203;-79
2022/12/22 14:53:39;;;;;;;17.20;11.30;;;;;;;6.03;68.62;96977.19;5070610;28;20210;-75
2022/12/22 14:56:21;;;;;;;18.67;11.00;;;;;;;5.95;68.79;96978.28;5075584;28;20281;-78
2022/12/22 14:58:49;;;;;;;18.17;10.83;;;;;;;5.88;69.97;96972.47;5076097;28;20242;-75
2022/12/22 15:01:29;;;;;;;26.90;14.70;;;;;;;5.85;69.33;96980.28;5070189;28;20593;-78
2022/12/22 15:04:01;;;;;;;21.03;13.83;;;;;;;5.62;70.50;96938.94;5069548;28;20193;-75
2022/12/22 15:06:28;;;;;;;25.17;14.93;;;;;;;5.93;70.56;96980.06;5085359;28;20249;-79
2022/12/22 15:09:05;;;;;;;23.63;15.30;;;;;;;5.89;69.37;96989.59;5090179;28;20250;-80
2022/12/22 15:11:34;;;;;;;30.57;17.03;;;;;;;5.90;70.58;96988.69;5089710;28;20590;-76
2022/12/22 15:14:03;;;;;;;32.83;17.30;;;;;;;5.86;70.15;96978.53;5089136;28;20199;-81
2022/12/22 15:16:30;;;;;;;24.83;14.87;;;;;;;5.83;70.67;96979.47;5089795;28;20278;-80
2022/12/22 15:18:57;;;;;;;26.30;15.57;;;;;;;5.41;71.41;96952.38;5089393;28;20556;-77
2022/12/22 15:21:24;;;;;;;28.40;17.23;;;;;;;5.54;71.31;96985.38;5090109;28;20226;-76
2022/12/22 15:23:51;;;;;;;31.57;19.47;;;;;;;5.48;72.11;96984.72;5089396;28;20230;-74
2022/12/22 15:26:18;;;;;;;43.10;23.20;;;;;;;5.29;72.96;96968.09;5089607;28;20214;-74
2022/12/22 15:28:45;;;;;;;41.87;25.20;;;;;;;5.38;72.38;96985.84;5089572;28;20317;-78
2022/12/22 15:31:14;;;;;;;43.67;24.90;;;;;;;5.33;73.05;96979.97;5071084;28;20281;-78
2022/12/22 15:33:43;;;;;;;45.00;24.97;;;;;;;5.24;73.01;97000.75;5090315;28;20207;-75
2022/12/22 15:36:12;;;;;;;42.80;26.47;;;;;;;5.22;72.93;96992.25;5088632;28;20285;-75
2022/12/22 15:38:40;;;;;;;43.87;28.00;;;;;;;5.18;73.04;96988.91;5064922;28;20285;-77
2022/12/22 15:41:07;;;;;;;61.43;32.37;;;;;;;5.19;73.18;96984.63;5069455;28;20682;-78
2022/12/22 15:43:36;;;;;;;65.43;37.93;;;;;;;5.14;73.27;96983.91;5069220;28;20186;-78